createdAt,value
2022-11-18T00:00:24.571Z,84.48
2022-11-18T00:01:24.545Z,84.28
2022-11-18T00:02:24.588Z,83.55
2022-11-18T00:03:24.503Z,83.24
2022-11-18T00:04:24.488Z,84.42
2022-11-18T00:05:24.488Z,83.80
2022-11-18T00:06:24.492Z,84.31
2022-11-18T00:07:24.569Z,83.69
2022-11-18T00:08:24.439Z,83.90
2022-11-18T00:09:24.431Z,85.46
2022-11-18T00:10:24.421Z,84.11
2022-11-18T00:11:24.428Z,85.42
2022-11-18T00:12:24.412Z,85.00
2022-11-18T00:13:24.392Z,85.52
2022-11-18T00:14:24.374Z,84.90
2022-11-18T00:15:29.059Z,84.23
2022-11-18T00:16:25.358Z,84.65
2022-11-18T00:17:24.359Z,83.14
2022-11-18T00:18:24.333Z,82.93
2022-11-18T00:19:24.334Z,83.38
2022-11-18T00:20:24.314Z,84.42
2022-11-18T00:21:24.305Z,83.73
2022-11-18T00:22:29.534Z,85.39
2022-11-18T00:23:25.290Z,85.25
2022-11-18T00:24:24.281Z,85.46
2022-11-18T00:25:24.260Z,86.39
2022-11-18T00:26:24.259Z,86.29
2022-11-18T00:27:24.255Z,85.35
2022-11-18T00:28:24.226Z,85.35
2022-11-18T00:29:24.221Z,85.25
2022-11-18T00:30:24.221Z,85.31
2022-11-18T00:31:24.188Z,85.38
2022-11-18T00:32:24.184Z,85.21
2022-11-18T00:33:24.174Z,85.48
2022-11-18T00:34:24.162Z,84.96
2022-11-18T00:35:24.145Z,85.06
2022-11-18T00:36:24.161Z,84.86
2022-11-18T00:37:24.120Z,84.13
2022-11-18T00:38:24.115Z,84.13
2022-11-18T00:39:24.188Z,83.31
2022-11-18T00:40:24.092Z,83.41
2022-11-18T00:41:24.081Z,83.51
2022-11-18T00:42:24.085Z,83.51
2022-11-18T00:43:24.056Z,83.47
2022-11-18T00:44:24.047Z,83.58
2022-11-18T00:45:24.036Z,83.37
2022-11-18T00:46:24.035Z,82.95
2022-11-18T00:47:24.044Z,83.06
2022-11-18T00:48:24.012Z,81.82
2022-11-18T00:49:23.999Z,81.61
2022-11-18T00:50:23.975Z,82.03
2022-11-18T00:51:23.979Z,81.71
2022-11-18T00:52:23.960Z,81.71
2022-11-18T00:53:23.965Z,81.71
2022-11-18T00:54:23.944Z,81.61
2022-11-18T00:55:23.951Z,81.30
2022-11-18T00:56:23.925Z,80.99
2022-11-18T00:57:23.915Z,80.19
2022-11-18T00:58:23.909Z,79.99
2022-11-18T00:59:23.882Z,81.02
2022-11-18T01:00:23.874Z,81.85
2022-11-18T01:01:23.961Z,81.92
2022-11-18T01:02:23.860Z,80.82
2022-11-18T01:03:23.863Z,80.23
2022-11-18T01:04:23.835Z,80.58
2022-11-18T01:05:23.845Z,81.14
2022-11-18T01:06:23.812Z,81.45
2022-11-18T01:07:23.890Z,82.07
2022-11-18T01:08:23.833Z,82.28
2022-11-18T01:09:23.776Z,83.07
2022-11-18T01:10:23.772Z,82.76
2022-11-18T01:11:23.769Z,81.82
2022-11-18T01:12:23.745Z,81.82
2022-11-18T01:13:23.736Z,81.72
2022-11-18T01:14:23.751Z,81.82
2022-11-18T01:15:23.732Z,81.82
2022-11-18T01:16:23.713Z,82.03
2022-11-18T01:17:23.698Z,81.58
2022-11-18T01:18:23.677Z,81.58
2022-11-18T01:19:23.677Z,80.06
2022-11-18T01:20:23.670Z,80.89
2022-11-18T01:21:23.680Z,81.62
2022-11-18T01:22:23.648Z,80.16
2022-11-18T01:23:23.649Z,80.31
2022-11-18T01:24:23.626Z,80.37
2022-11-18T01:25:23.627Z,81.20
2022-11-18T01:26:23.599Z,79.90
2022-11-18T01:27:23.598Z,79.79
2022-11-18T01:28:24.337Z,80.14
2022-11-18T01:29:23.561Z,81.07
2022-11-18T01:30:23.550Z,81.35
2022-11-18T01:31:23.555Z,81.76
2022-11-18T01:32:25.393Z,81.76
2022-11-18T01:33:23.532Z,81.93
2022-11-18T01:34:23.502Z,82.03
2022-11-18T01:35:23.489Z,81.62
2022-11-18T01:36:23.511Z,80.21
2022-11-18T01:37:23.473Z,79.34
2022-11-18T01:38:23.468Z,79.48
2022-11-18T01:39:23.470Z,80.21
2022-11-18T01:40:23.449Z,80.73
2022-11-18T01:41:32.294Z,80.04
2022-11-18T01:42:23.416Z,80.04
2022-11-18T01:43:23.434Z,80.14
2022-11-18T01:44:23.389Z,80.18
2022-11-18T01:45:23.389Z,80.49
2022-11-18T01:46:23.371Z,81.11
2022-11-18T01:47:23.370Z,81.32
2022-11-18T01:48:23.357Z,81.94
2022-11-18T01:49:23.332Z,81.11
2022-11-18T01:50:23.328Z,81.42
2022-11-18T01:51:23.310Z,81.11
2022-11-18T01:52:23.315Z,81.25
2022-11-18T01:53:23.313Z,81.04
2022-11-18T01:54:23.279Z,81.63
2022-11-18T01:55:23.269Z,81.94
2022-11-18T01:56:23.265Z,81.94
2022-11-18T01:57:23.244Z,81.07
2022-11-18T01:58:23.235Z,80.35
2022-11-18T01:59:23.257Z,80.18
2022-11-18T02:00:23.220Z,80.97
2022-11-18T02:01:23.275Z,80.66
2022-11-18T02:02:23.195Z,81.28
2022-11-18T02:03:23.183Z,81.38
2022-11-18T02:04:23.179Z,81.49
2022-11-18T02:05:23.173Z,80.35
2022-11-18T02:06:23.149Z,80.76
2022-11-18T02:07:23.208Z,81.07
2022-11-18T02:08:23.129Z,80.14
2022-11-18T02:09:23.136Z,80.10
2022-11-18T02:10:23.114Z,80.62
2022-11-18T02:11:23.100Z,79.79
2022-11-18T02:12:23.154Z,80.10
2022-11-18T02:13:23.076Z,80.41
2022-11-18T02:14:23.066Z,79.90
2022-11-18T02:15:23.084Z,79.06
2022-11-18T02:16:23.044Z,80.10
2022-11-18T02:17:23.037Z,79.58
2022-11-18T02:18:23.016Z,79.17
2022-11-18T02:19:23.007Z,79.27
2022-11-18T02:20:23.019Z,79.69
2022-11-18T02:21:22.983Z,79.17
2022-11-18T02:22:22.994Z,79.51
2022-11-18T02:23:22.980Z,79.30
2022-11-18T02:24:22.990Z,80.04
2022-11-18T02:25:22.952Z,81.38
2022-11-18T02:26:22.936Z,81.38
2022-11-18T02:27:22.927Z,80.52
2022-11-18T02:28:22.916Z,79.51
2022-11-18T02:29:22.907Z,79.76
2022-11-18T02:30:22.884Z,79.97
2022-11-18T02:31:22.900Z,80.18
2022-11-18T02:32:22.863Z,81.21
2022-11-18T02:33:22.860Z,81.84
2022-11-18T02:34:22.843Z,81.18
2022-11-18T02:35:22.849Z,80.35
2022-11-18T02:36:22.826Z,81.32
2022-11-18T02:37:22.829Z,81.18
2022-11-18T02:38:22.800Z,81.28
2022-11-18T02:39:22.798Z,79.41
2022-11-18T02:40:22.787Z,79.41
2022-11-18T02:41:22.775Z,80.24
2022-11-18T02:42:22.763Z,79.30
2022-11-18T02:43:22.745Z,79.76
2022-11-18T02:44:22.731Z,80.00
2022-11-18T02:45:22.741Z,80.21
2022-11-18T02:46:22.717Z,81.42
2022-11-18T02:47:22.724Z,81.56
2022-11-18T02:48:22.693Z,81.21
2022-11-18T02:49:22.688Z,80.59
2022-11-18T02:50:22.668Z,80.38
2022-11-18T02:51:22.694Z,81.42
2022-11-18T02:52:22.644Z,80.18
2022-11-18T02:53:22.645Z,79.80
2022-11-18T02:54:22.625Z,80.18
2022-11-18T02:55:22.614Z,81.01
2022-11-18T02:56:22.603Z,80.07
2022-11-18T02:57:22.618Z,80.18
2022-11-18T02:58:22.580Z,79.65
2022-11-18T02:59:22.574Z,80.49
2022-11-18T03:00:22.570Z,80.38
2022-11-18T03:01:22.647Z,79.55
2022-11-18T03:02:22.551Z,79.44
2022-11-18T03:03:22.554Z,80.28
2022-11-18T03:04:22.526Z,80.07
2022-11-18T03:05:22.506Z,80.76
2022-11-18T03:06:22.507Z,80.28
2022-11-18T03:07:22.533Z,80.04
2022-11-18T03:08:22.476Z,79.51
2022-11-18T03:09:22.466Z,78.61
2022-11-18T03:10:22.448Z,79.30
2022-11-18T03:11:22.467Z,79.61
2022-11-18T03:12:22.428Z,80.04
2022-11-18T03:13:22.436Z,79.83
2022-11-18T03:14:22.408Z,79.61
2022-11-18T03:15:22.406Z,78.96
2022-11-18T03:16:22.395Z,79.61
2022-11-18T03:17:22.383Z,79.79
2022-11-18T03:18:22.382Z,79.79
2022-11-18T03:19:22.374Z,79.55
2022-11-18T03:20:22.345Z,79.69
2022-11-18T03:21:22.334Z,78.75
2022-11-18T03:22:22.325Z,78.51
2022-11-18T03:23:22.353Z,78.41
2022-11-18T03:24:22.307Z,79.03
2022-11-18T03:25:22.283Z,78.82
2022-11-18T03:26:22.276Z,78.82
2022-11-18T03:27:22.268Z,78.30
2022-11-18T03:28:22.264Z,77.78
2022-11-18T03:29:22.259Z,78.55
2022-11-18T03:30:22.236Z,78.65
2022-11-18T03:31:22.224Z,79.24
2022-11-18T03:32:22.210Z,79.13
2022-11-18T03:33:22.196Z,78.72
2022-11-18T03:34:22.206Z,79.13
2022-11-18T03:35:22.200Z,79.03
2022-11-18T03:36:22.175Z,79.03
2022-11-18T03:37:22.161Z,77.72
2022-11-18T03:38:22.154Z,78.68
2022-11-18T03:39:22.156Z,79.72
2022-11-18T03:40:22.131Z,80.45
2022-11-18T03:41:22.123Z,80.55
2022-11-18T03:42:22.139Z,80.55
2022-11-18T03:43:22.097Z,80.45
2022-11-18T03:44:22.082Z,80.14
2022-11-18T03:45:22.071Z,80.41
2022-11-18T03:46:22.061Z,80.55
2022-11-18T03:47:22.053Z,80.62
2022-11-18T03:48:22.053Z,80.73
2022-11-18T03:49:22.030Z,80.62
2022-11-18T03:50:22.030Z,79.79
2022-11-18T03:51:22.033Z,79.79
2022-11-18T03:52:21.997Z,78.96
2022-11-18T03:53:22.015Z,80.04
2022-11-18T03:54:21.994Z,80.10
2022-11-18T03:55:21.974Z,80.10
2022-11-18T03:56:21.951Z,80.62
2022-11-18T03:57:21.951Z,80.73
2022-11-18T03:58:21.932Z,80.21
2022-11-18T03:59:21.946Z,80.37
2022-11-18T04:00:21.909Z,79.75
2022-11-18T04:01:22.004Z,79.55
2022-11-18T04:02:21.905Z,79.24
2022-11-18T04:03:21.897Z,79.24
2022-11-18T04:04:21.873Z,78.92
2022-11-18T04:05:21.867Z,78.92
2022-11-18T04:06:21.844Z,79.44
2022-11-18T04:07:22.012Z,79.03
2022-11-18T04:08:21.839Z,78.23
2022-11-18T04:09:21.830Z,78.78
2022-11-18T04:10:21.832Z,79.83
2022-11-18T04:11:21.790Z,79.90
2022-11-18T04:12:21.783Z,79.48
2022-11-18T04:13:21.904Z,79.58
2022-11-18T04:14:21.756Z,79.44
2022-11-18T04:15:21.883Z,79.03
2022-11-18T04:16:21.745Z,79.03
2022-11-18T04:17:21.738Z,78.41
2022-11-18T04:18:21.717Z,78.92
2022-11-18T04:19:22.170Z,79.17
2022-11-18T04:20:21.703Z,78.65
2022-11-18T04:21:21.678Z,79.27
2022-11-18T04:22:21.669Z,79.27
2022-11-18T04:23:21.822Z,79.58
2022-11-18T04:24:21.656Z,79.17
2022-11-18T04:25:21.683Z,78.68
2022-11-18T04:26:21.628Z,79.72
2022-11-18T04:27:21.624Z,80.35
2022-11-18T04:28:21.610Z,81.28
2022-11-18T04:29:21.603Z,80.45
2022-11-18T04:30:21.583Z,80.04
2022-11-18T04:31:21.618Z,80.18
2022-11-18T04:32:21.620Z,81.21
2022-11-18T04:33:21.556Z,81.90
2022-11-18T04:34:21.547Z,81.94
2022-11-18T04:35:21.540Z,81.63
2022-11-18T04:36:21.536Z,81.90
2022-11-18T04:37:21.574Z,80.07
2022-11-18T04:38:22.229Z,81.01
2022-11-18T04:39:21.515Z,81.21
2022-11-18T04:40:21.483Z,82.04
2022-11-18T04:41:21.475Z,81.94
2022-11-18T04:42:21.478Z,79.24
2022-11-18T04:43:21.456Z,79.90
2022-11-18T04:44:21.429Z,80.73
2022-11-18T04:45:21.423Z,81.67
2022-11-18T04:46:21.411Z,80.32
2022-11-18T04:47:21.435Z,81.46
2022-11-18T04:48:21.407Z,82.12
2022-11-18T04:49:21.377Z,81.98
2022-11-18T04:50:21.363Z,81.08
2022-11-18T04:51:21.354Z,81.29
2022-11-18T04:52:21.364Z,82.01
2022-11-18T04:53:21.339Z,82.22
2022-11-18T04:54:21.325Z,82.91
2022-11-18T04:55:21.388Z,83.05
2022-11-18T04:56:21.308Z,82.81
2022-11-18T04:57:21.307Z,81.98
2022-11-18T04:58:21.277Z,81.94
2022-11-18T04:59:21.603Z,81.84
2022-11-18T05:00:21.263Z,81.52
2022-11-18T05:01:21.354Z,81.84
2022-11-18T05:02:21.247Z,80.90
2022-11-18T05:03:21.222Z,81.42
2022-11-18T05:04:21.244Z,82.15
2022-11-18T05:05:21.216Z,82.04
2022-11-18T05:06:21.191Z,82.11
2022-11-18T05:07:21.282Z,81.90
2022-11-18T05:08:21.171Z,81.52
2022-11-18T05:09:21.598Z,80.38
2022-11-18T05:10:21.183Z,81.01
2022-11-18T05:11:21.150Z,81.21
2022-11-18T05:12:21.128Z,81.35
2022-11-18T05:13:21.119Z,81.63
2022-11-18T05:14:21.101Z,82.46
2022-11-18T05:15:21.124Z,82.25
2022-11-18T05:16:21.089Z,81.73
2022-11-18T05:17:21.077Z,81.80
2022-11-18T05:18:21.079Z,81.28
2022-11-18T05:19:21.160Z,81.38
2022-11-18T05:20:21.059Z,81.90
2022-11-18T05:21:21.047Z,81.07
2022-11-18T05:22:21.023Z,80.93
2022-11-18T05:23:21.011Z,81.49
2022-11-18T05:24:20.989Z,80.93
2022-11-18T05:25:20.979Z,80.93
2022-11-18T05:26:20.988Z,80.93
2022-11-18T05:27:21.010Z,80.83
2022-11-18T05:28:20.956Z,80.58
2022-11-18T05:29:20.943Z,80.89
2022-11-18T05:30:20.941Z,80.06
2022-11-18T05:31:20.914Z,80.27
2022-11-18T05:32:20.903Z,80.47
2022-11-18T05:33:20.904Z,80.37
2022-11-18T05:34:20.890Z,80.06
2022-11-18T05:35:20.875Z,80.37
2022-11-18T05:36:20.863Z,80.16
2022-11-18T05:37:20.852Z,80.16
2022-11-18T05:38:20.869Z,80.06
2022-11-18T05:39:21.174Z,79.34
2022-11-18T05:40:20.820Z,79.24
2022-11-18T05:41:20.811Z,79.13
2022-11-18T05:42:20.796Z,79.44
2022-11-18T05:43:20.823Z,79.24
2022-11-18T05:44:20.801Z,79.13
2022-11-18T05:45:20.769Z,78.82
2022-11-18T05:46:20.758Z,79.03
2022-11-18T05:47:20.743Z,79.03
2022-11-18T05:48:20.742Z,78.82
2022-11-18T05:49:20.893Z,78.61
2022-11-18T05:50:21.557Z,78.61
2022-11-18T05:51:20.707Z,78.41
2022-11-18T05:52:20.800Z,78.41
2022-11-18T05:53:20.680Z,78.41
2022-11-18T05:54:20.714Z,77.68
2022-11-18T05:55:20.694Z,76.78
2022-11-18T05:56:20.683Z,77.51
2022-11-18T05:57:20.633Z,77.72
2022-11-18T05:58:20.673Z,78.65
2022-11-18T05:59:20.973Z,78.34
2022-11-18T06:00:20.636Z,77.92
2022-11-18T06:01:20.592Z,77.09
2022-11-18T06:02:20.674Z,76.89
2022-11-18T06:03:20.655Z,77.40
2022-11-18T06:04:20.574Z,77.51
2022-11-18T06:05:20.557Z,77.09
2022-11-18T06:06:20.549Z,77.20
2022-11-18T06:07:20.585Z,76.99
2022-11-18T06:08:20.659Z,76.95
2022-11-18T06:09:22.006Z,76.68
2022-11-18T06:10:22.067Z,76.78
2022-11-18T06:11:21.247Z,76.75
2022-11-18T06:12:20.757Z,76.75
2022-11-18T06:13:20.456Z,76.54
2022-11-18T06:14:20.460Z,76.64
2022-11-18T06:15:20.474Z,76.85
2022-11-18T06:16:20.437Z,76.64
2022-11-18T06:17:20.422Z,76.12
2022-11-18T06:18:20.413Z,75.50
2022-11-18T06:19:20.625Z,74.91
2022-11-18T06:20:20.397Z,75.85
2022-11-18T06:21:20.370Z,75.12
2022-11-18T06:22:20.364Z,75.33
2022-11-18T06:23:20.350Z,75.26
2022-11-18T06:24:20.349Z,75.74
2022-11-18T06:25:20.353Z,75.23
2022-11-18T06:26:20.331Z,75.74
2022-11-18T06:27:20.307Z,74.91
2022-11-18T06:28:20.294Z,74.71
2022-11-18T06:29:24.560Z,74.71
2022-11-18T06:30:21.297Z,74.60
2022-11-18T06:31:20.302Z,73.91
2022-11-18T06:32:20.259Z,73.08
2022-11-18T06:33:20.251Z,73.60
2022-11-18T06:34:20.239Z,73.08
2022-11-18T06:35:20.242Z,76.50
2022-11-18T06:36:20.241Z,76.19
2022-11-18T06:37:20.194Z,72.00
2022-11-18T06:38:20.190Z,74.60
2022-11-18T06:39:20.719Z,76.99
2022-11-18T06:40:20.164Z,76.43
2022-11-18T06:41:20.177Z,76.02
2022-11-18T06:42:20.140Z,75.36
2022-11-18T06:43:20.138Z,75.26
2022-11-18T06:44:20.117Z,75.78
2022-11-18T06:45:20.304Z,76.57
2022-11-18T06:46:20.117Z,74.71
2022-11-18T06:47:20.109Z,74.05
2022-11-18T06:48:20.088Z,73.22
2022-11-18T06:49:20.374Z,72.70
2022-11-18T06:50:20.063Z,71.77
2022-11-18T06:51:20.052Z,71.87
2022-11-18T06:52:20.069Z,71.25
2022-11-18T06:53:20.028Z,71.97
2022-11-18T06:54:20.012Z,72.22
2022-11-18T06:55:20.007Z,73.46
2022-11-18T06:56:20.000Z,73.05
2022-11-18T06:57:19.988Z,72.04
2022-11-18T06:58:19.984Z,72.07
2022-11-18T06:59:20.157Z,72.63
2022-11-18T07:00:19.947Z,72.97
2022-11-18T07:01:20.881Z,74.84
2022-11-18T07:02:19.930Z,76.33
2022-11-18T07:03:19.959Z,76.43
2022-11-18T07:04:19.942Z,76.72
2022-11-18T07:05:20.654Z,76.92
2022-11-18T07:06:19.923Z,76.72
2022-11-18T07:07:19.917Z,74.95
2022-11-18T07:08:19.860Z,74.98
2022-11-18T07:09:20.270Z,76.29
2022-11-18T07:10:19.845Z,74.91
2022-11-18T07:11:19.857Z,75.95
2022-11-18T07:12:19.871Z,76.68
2022-11-18T07:13:19.812Z,76.30
2022-11-18T07:14:19.796Z,76.72
2022-11-18T07:15:19.784Z,78.17
2022-11-18T07:16:19.796Z,79.00
2022-11-18T07:17:19.770Z,78.97
2022-11-18T07:18:19.790Z,79.07
2022-11-18T07:19:19.971Z,78.41
2022-11-18T07:20:19.740Z,78.41
2022-11-18T07:21:19.728Z,77.69
2022-11-18T07:22:19.715Z,76.95
2022-11-18T07:23:19.705Z,75.98
2022-11-18T07:24:19.768Z,75.36
2022-11-18T07:25:19.731Z,74.95
2022-11-18T07:26:19.678Z,73.11
2022-11-18T07:27:21.071Z,73.56
2022-11-18T07:28:19.643Z,73.66
2022-11-18T07:29:19.909Z,75.01
2022-11-18T07:30:19.670Z,74.49
2022-11-18T07:31:19.646Z,74.91
2022-11-18T07:32:19.723Z,73.69
2022-11-18T07:33:19.596Z,74.11
2022-11-18T07:34:19.580Z,73.83
2022-11-18T07:35:19.606Z,74.46
2022-11-18T07:36:19.578Z,74.46
2022-11-18T07:37:19.547Z,74.56
2022-11-18T07:38:19.536Z,74.77
2022-11-18T07:39:20.000Z,75.32
2022-11-18T07:40:19.517Z,75.01
2022-11-18T07:41:19.531Z,74.91
2022-11-18T07:42:28.854Z,76.06
2022-11-18T07:43:19.496Z,76.33
2022-11-18T07:44:19.486Z,74.56
2022-11-18T07:45:19.466Z,74.15
2022-11-18T07:46:19.464Z,75.64
2022-11-18T07:47:19.456Z,76.43
2022-11-18T07:48:19.440Z,76.40
2022-11-18T07:49:19.907Z,76.82
2022-11-18T07:50:19.419Z,75.54
2022-11-18T07:51:19.428Z,75.32
2022-11-18T07:52:19.410Z,73.83
2022-11-18T07:53:19.383Z,73.14
2022-11-18T07:54:19.374Z,75.01
2022-11-18T07:55:19.366Z,72.41
2022-11-18T07:56:19.353Z,72.55
2022-11-18T07:57:19.356Z,73.28
2022-11-18T07:58:19.334Z,72.13
2022-11-18T07:59:19.531Z,73.07
2022-11-18T08:00:19.314Z,73.49
2022-11-18T08:01:19.378Z,73.07
2022-11-18T08:02:19.281Z,73.49
2022-11-18T08:03:19.303Z,72.86
2022-11-18T08:04:19.264Z,72.86
2022-11-18T08:05:19.299Z,72.62
2022-11-18T08:06:19.244Z,73.46
2022-11-18T08:07:19.360Z,73.56
2022-11-18T08:08:19.258Z,72.20
2022-11-18T08:09:19.467Z,72.20
2022-11-18T08:10:19.209Z,72.52
2022-11-18T08:11:22.541Z,72.69
2022-11-18T08:12:19.190Z,73.11
2022-11-18T08:13:19.171Z,72.80
2022-11-18T08:14:19.157Z,71.55
2022-11-18T08:15:19.146Z,71.97
2022-11-18T08:16:19.144Z,71.31
2022-11-18T08:17:19.144Z,71.31
2022-11-18T08:18:19.135Z,71.41
2022-11-18T08:19:19.409Z,70.89
2022-11-18T08:20:19.097Z,70.27
2022-11-18T08:21:19.088Z,70.37
2022-11-18T08:22:19.073Z,70.51
2022-11-18T08:23:19.133Z,71.86
2022-11-18T08:24:19.058Z,71.97
2022-11-18T08:25:19.053Z,72.80
2022-11-18T08:26:19.028Z,72.24
2022-11-18T08:27:19.022Z,71.51
2022-11-18T08:28:19.057Z,70.37
2022-11-18T08:29:24.707Z,70.79
2022-11-18T08:30:20.016Z,71.93
2022-11-18T08:31:18.980Z,72.31
2022-11-18T08:32:18.963Z,71.38
2022-11-18T08:33:18.961Z,71.38
2022-11-18T08:34:18.940Z,71.45
2022-11-18T08:35:18.930Z,70.83
2022-11-18T08:36:18.941Z,70.69
2022-11-18T08:37:18.923Z,70.38
2022-11-18T08:38:18.909Z,70.07
2022-11-18T08:39:19.226Z,69.45
2022-11-18T08:40:18.873Z,69.45
2022-11-18T08:41:18.877Z,68.30
2022-11-18T08:42:18.863Z,68.82
2022-11-18T08:43:18.856Z,69.13
2022-11-18T08:44:18.847Z,68.51
2022-11-18T08:45:18.826Z,68.62
2022-11-18T08:46:18.820Z,69.13
2022-11-18T08:47:18.820Z,67.68
2022-11-18T08:48:18.799Z,67.95
2022-11-18T08:49:18.984Z,68.12
2022-11-18T08:50:18.788Z,69.26
2022-11-18T08:51:18.763Z,70.72
2022-11-18T08:52:18.745Z,69.99
2022-11-18T08:53:18.747Z,70.75
2022-11-18T08:54:18.735Z,71.44
2022-11-18T08:55:18.767Z,71.44
2022-11-18T08:56:18.712Z,70.40
2022-11-18T08:57:18.695Z,69.81
2022-11-18T08:58:18.686Z,70.54
2022-11-18T08:59:19.040Z,71.17
2022-11-18T09:00:18.654Z,71.27
2022-11-18T09:01:18.764Z,71.58
2022-11-18T09:02:18.643Z,70.85
2022-11-18T09:03:18.630Z,71.44
2022-11-18T09:04:18.661Z,70.82
2022-11-18T09:05:18.614Z,71.41
2022-11-18T09:06:18.708Z,71.20
2022-11-18T09:07:18.641Z,70.86
2022-11-18T09:08:18.587Z,70.54
2022-11-18T09:09:18.639Z,70.75
2022-11-18T09:10:18.556Z,68.78
2022-11-18T09:11:18.566Z,68.16
2022-11-18T09:12:18.537Z,68.60
2022-11-18T09:13:47.507Z,68.29
2022-11-18T09:15:19.656Z,69.78
2022-11-18T09:16:21.216Z,70.48
2022-11-18T09:17:18.538Z,70.58
2022-11-18T09:18:18.555Z,70.09
2022-11-18T09:19:45.512Z,69.57
2022-11-18T09:20:19.474Z,70.20
2022-11-18T09:21:18.452Z,70.20
2022-11-18T09:22:18.446Z,69.85
2022-11-18T09:23:18.423Z,69.37
2022-11-18T09:24:18.623Z,69.92
2022-11-18T09:25:18.416Z,71.09
2022-11-18T09:26:18.404Z,71.58
2022-11-18T09:27:18.434Z,71.89
2022-11-18T09:28:18.368Z,71.89
2022-11-18T09:29:18.359Z,71.27
2022-11-18T09:30:18.347Z,72.10
2022-11-18T09:31:18.371Z,72.17
2022-11-18T09:32:18.326Z,72.20
2022-11-18T09:33:20.603Z,71.03
2022-11-18T09:34:18.545Z,71.23
2022-11-18T09:35:18.292Z,70.79
2022-11-18T09:36:18.305Z,70.58
2022-11-18T09:37:18.282Z,70.58
2022-11-18T09:38:18.264Z,70.48
2022-11-18T09:39:18.809Z,69.54
2022-11-18T09:40:18.291Z,67.91
2022-11-18T09:41:18.228Z,69.09
2022-11-18T09:42:18.217Z,70.12
2022-11-18T09:43:18.297Z,70.23
2022-11-18T09:44:18.248Z,71.06
2022-11-18T09:45:23.611Z,70.95
2022-11-18T09:46:19.189Z,71.48
2022-11-18T09:47:18.188Z,71.34
2022-11-18T09:48:18.150Z,71.23
2022-11-18T09:49:18.320Z,70.82
2022-11-18T09:50:48.008Z,70.72
2022-11-18T09:51:19.122Z,70.72
2022-11-18T09:52:18.100Z,70.40
2022-11-18T09:53:18.103Z,69.50
2022-11-18T09:54:18.217Z,70.72
2022-11-18T09:55:18.073Z,70.23
2022-11-18T09:56:18.206Z,70.89
2022-11-18T09:57:18.042Z,71.51
2022-11-18T09:58:18.034Z,71.61
2022-11-18T09:59:18.036Z,71.65
2022-11-18T10:00:18.016Z,72.06
2022-11-18T10:01:18.161Z,72.24
2022-11-18T10:02:18.055Z,72.24
2022-11-18T10:03:17.980Z,71.72
2022-11-18T10:04:19.160Z,72.03
2022-11-18T10:05:17.975Z,72.34
2022-11-18T10:06:23.131Z,72.31
2022-11-18T10:07:19.032Z,72.20
2022-11-18T10:08:17.937Z,72.41
2022-11-18T10:09:17.918Z,72.17
2022-11-18T10:10:17.912Z,72.28
2022-11-18T10:11:17.906Z,71.83
2022-11-18T10:12:17.917Z,71.59
2022-11-18T10:13:17.888Z,71.80
2022-11-18T10:14:18.166Z,71.17
2022-11-18T10:15:18.541Z,70.93
2022-11-18T10:16:17.856Z,71.24
2022-11-18T10:17:17.862Z,71.14
2022-11-18T10:18:37.985Z,70.10
2022-11-18T10:19:18.846Z,70.07
2022-11-18T10:20:17.804Z,69.65
2022-11-18T10:21:17.787Z,69.03
2022-11-18T10:22:23.766Z,69.34
2022-11-18T10:23:18.785Z,69.03
2022-11-18T10:24:18.101Z,68.30
2022-11-18T10:25:17.771Z,67.96
2022-11-18T10:26:17.751Z,67.96
2022-11-18T10:27:17.745Z,67.76
2022-11-18T10:28:17.730Z,67.79
2022-11-18T10:29:17.704Z,67.96
2022-11-18T10:30:17.700Z,67.96
2022-11-18T10:31:17.719Z,67.76
2022-11-18T10:32:17.681Z,67.86
2022-11-18T10:33:17.663Z,67.86
2022-11-18T10:34:17.812Z,67.03
2022-11-18T10:35:17.646Z,67.44
2022-11-18T10:36:17.644Z,67.06
2022-11-18T10:37:17.648Z,67.47
2022-11-18T10:38:17.604Z,68.10
2022-11-18T10:39:17.611Z,67.79
2022-11-18T10:40:17.652Z,67.79
2022-11-18T10:41:17.580Z,66.78
2022-11-18T10:42:17.589Z,67.15
2022-11-18T10:43:17.584Z,68.12
2022-11-18T10:44:17.813Z,69.12
2022-11-18T10:45:17.545Z,70.48
2022-11-18T10:46:18.436Z,70.58
2022-11-18T10:47:17.527Z,69.85
2022-11-18T10:48:17.515Z,67.98
2022-11-18T10:49:17.500Z,68.60
2022-11-18T10:50:17.475Z,69.54
2022-11-18T10:51:17.640Z,68.88
2022-11-18T10:52:17.452Z,68.47
2022-11-18T10:53:17.490Z,68.13
2022-11-18T10:54:17.781Z,67.46
2022-11-18T10:55:17.426Z,67.98
2022-11-18T10:56:17.471Z,68.50
2022-11-18T10:57:17.414Z,69.43
2022-11-18T10:58:17.449Z,69.09
2022-11-18T10:59:17.397Z,68.40
2022-11-18T11:00:17.410Z,68.47
2022-11-18T11:01:17.450Z,68.57
2022-11-18T11:02:17.423Z,67.85
2022-11-18T11:03:17.356Z,68.19
2022-11-18T11:04:17.520Z,68.88
2022-11-18T11:05:17.314Z,68.78
2022-11-18T11:06:17.309Z,68.29
2022-11-18T11:07:17.387Z,68.63
2022-11-18T11:08:35.787Z,69.54
2022-11-18T11:09:18.268Z,69.64
2022-11-18T11:10:17.277Z,69.64
2022-11-18T11:11:17.264Z,69.71
2022-11-18T11:12:17.231Z,70.03
2022-11-18T11:13:17.225Z,69.92
2022-11-18T11:14:17.585Z,69.58
2022-11-18T11:15:17.199Z,69.37
2022-11-18T11:16:19.991Z,68.65
2022-11-18T11:17:17.263Z,68.82
2022-11-18T11:18:17.177Z,68.30
2022-11-18T11:19:17.183Z,68.10
2022-11-18T11:20:17.297Z,67.79
2022-11-18T11:21:17.140Z,67.37
2022-11-18T11:22:17.118Z,67.89
2022-11-18T11:23:23.229Z,67.89
2022-11-18T11:24:17.356Z,67.68
2022-11-18T11:25:17.152Z,68.20
2022-11-18T11:28:18.071Z,67.89
2022-11-18T11:29:17.249Z,67.99
2022-11-18T11:30:17.137Z,67.96
2022-11-18T11:31:17.028Z,68.07
2022-11-18T11:32:17.014Z,68.07
2022-11-18T11:33:17.017Z,68.07
2022-11-18T11:34:16.992Z,67.44
2022-11-18T11:35:17.008Z,67.96
2022-11-18T11:36:16.982Z,67.96
2022-11-18T11:37:16.979Z,66.78
2022-11-18T11:38:16.967Z,66.68
2022-11-18T11:39:17.478Z,68.03
2022-11-18T11:40:16.932Z,67.20
2022-11-18T11:41:16.929Z,66.41
2022-11-18T11:42:16.916Z,66.58
2022-11-18T11:43:16.918Z,66.82
2022-11-18T11:44:16.900Z,67.93
2022-11-18T11:45:16.871Z,67.10
2022-11-18T11:46:16.884Z,66.78
2022-11-18T11:47:16.885Z,66.38
2022-11-18T11:48:16.864Z,66.78
2022-11-18T11:49:17.185Z,66.20
2022-11-18T11:50:16.827Z,66.54
2022-11-18T11:51:16.836Z,67.19
2022-11-18T11:52:16.810Z,67.92
2022-11-18T11:53:16.809Z,68.13
2022-11-18T11:54:16.781Z,68.10
2022-11-18T11:55:16.767Z,67.79
2022-11-18T11:56:22.206Z,67.47
2022-11-18T11:57:16.772Z,68.02
2022-11-18T11:58:16.745Z,67.92
2022-11-18T11:59:17.152Z,68.02
2022-11-18T12:00:16.763Z,68.02
2022-11-18T12:01:16.699Z,67.58
2022-11-18T12:02:16.696Z,67.89
2022-11-18T12:03:16.722Z,67.89
2022-11-18T12:04:16.698Z,68.10
2022-11-18T12:05:16.663Z,67.65
2022-11-18T12:06:16.645Z,67.86
2022-11-18T12:07:16.767Z,66.78
2022-11-18T12:08:16.636Z,67.82
2022-11-18T12:09:16.952Z,66.51
2022-11-18T12:10:16.624Z,66.72
2022-11-18T12:11:16.597Z,67.16
2022-11-18T12:12:16.588Z,66.72
2022-11-18T12:13:16.597Z,67.55
2022-11-18T12:14:16.566Z,66.85
2022-11-18T12:15:16.571Z,66.93
2022-11-18T12:16:16.548Z,66.22
2022-11-18T12:17:16.528Z,65.94
2022-11-18T12:18:16.543Z,66.47
2022-11-18T12:19:17.131Z,66.99
2022-11-18T12:20:16.531Z,66.81
2022-11-18T12:21:16.488Z,66.94
2022-11-18T12:22:16.480Z,68.08
2022-11-18T12:23:16.501Z,67.70
2022-11-18T12:24:16.454Z,68.22
2022-11-18T12:25:16.468Z,68.81
2022-11-18T12:26:16.432Z,69.33
2022-11-18T12:27:16.452Z,68.68
2022-11-18T12:28:16.426Z,68.05
2022-11-18T12:29:16.882Z,67.85
2022-11-18T12:30:16.398Z,67.82
2022-11-18T12:31:16.393Z,67.61
2022-11-18T12:32:16.392Z,66.88
2022-11-18T12:33:16.376Z,67.82
2022-11-18T12:34:16.340Z,68.13
2022-11-18T12:35:16.349Z,68.10
2022-11-18T12:36:16.429Z,66.64
2022-11-18T12:37:16.341Z,66.41
2022-11-18T12:38:16.431Z,66.72
2022-11-18T12:39:16.643Z,66.51
2022-11-18T12:40:16.302Z,66.27
2022-11-18T12:41:16.283Z,65.13
2022-11-18T12:42:16.270Z,64.40
2022-11-18T12:43:16.283Z,63.57
2022-11-18T12:44:16.235Z,62.74
2022-11-18T12:45:16.242Z,64.20
2022-11-18T12:46:16.229Z,63.99
2022-11-18T12:47:16.223Z,62.98
2022-11-18T12:48:16.225Z,62.88
2022-11-18T12:49:16.715Z,63.63
2022-11-18T12:50:16.203Z,64.46
2022-11-18T12:51:16.178Z,63.84
2022-11-18T12:52:16.161Z,63.84
2022-11-18T12:53:16.146Z,64.25
2022-11-18T12:54:16.141Z,64.39
2022-11-18T12:55:16.185Z,65.01